Wetterdaten: Donnerstag, 23.09.2010
Datum Zeit Temp. A. Feuchte A. Luftdruck Regen Wind Richtung Richtung Sonnenschein UV Solar Windben
23.09.2010 00:00 13,3 C 85 % 1016,5 hPa 0,0 mm 0,0 km/h (0 Bft) S-SO 157 0 min 0 UV-I 0 W/m 1,6 km/h (1 Bft)
23.09.2010 00:10 13,0 C 86 % 1016,4 hPa 0,0 mm 0,0 km/h (0 Bft) N 0 0 min 0 UV-I 0 W/m 0,0 km/h (0 Bft)
23.09.2010 00:20 12,8 C 87 % 1016,4 hPa 0,0 mm 0,0 km/h (0 Bft) N 0 0 min 0 UV-I 0 W/m 0,0 km/h (0 Bft)
23.09.2010 00:30 12,7 C 87 % 1016,2 hPa 0,0 mm 0,0 km/h (0 Bft) N 0 0 min 0 UV-I 0 W/m 0,0 km/h (0 Bft)
23.09.2010 00:40 12,6 C 88 % 1016,3 hPa 0,0 mm 0,0 km/h (0 Bft) N 0 0 min 0 UV-I 0 W/m 0,0 km/h (0 Bft)
23.09.2010 00:50 12,4 C 88 % 1016,2 hPa 0,0 mm 0,0 km/h (0 Bft) N 0 0 min 0 UV-I 0 W/m 0,0 km/h (0 Bft)
23.09.2010 01:00 12,3 C 89 % 1016,1 hPa 0,0 mm 0,0 km/h (0 Bft) N 0 0 min 0 UV-I 0 W/m 0,0 km/h (0 Bft)
23.09.2010 01:10 12,3 C 89 % 1015,9 hPa 0,0 mm 0,0 km/h (0 Bft) N 0 0 min 0 UV-I 0 W/m 0,0 km/h (0 Bft)
23.09.2010 01:20 12,2 C 89 % 1015,8 hPa 0,0 mm 0,0 km/h (0 Bft) N 0 0 min 0 UV-I 0 W/m 0,0 km/h (0 Bft)
23.09.2010 01:30 11,9 C 89 % 1015,7 hPa 0,0 mm 0,0 km/h (0 Bft) N 0 0 min 0 UV-I 0 W/m 0,0 km/h (0 Bft)
23.09.2010 01:40 11,9 C 89 % 1015,8 hPa 0,0 mm 0,0 km/h (0 Bft) S-SO 157 0 min 0 UV-I 0 W/m 1,6 km/h (1 Bft)
23.09.2010 01:50 11,7 C 90 % 1015,6 hPa 0,0 mm 0,0 km/h (0 Bft) N 0 0 min 0 UV-I 0 W/m 0,0 km/h (0 Bft)
23.09.2010 02:00 11,7 C 90 % 1015,6 hPa 0,0 mm 0,0 km/h (0 Bft) N 0 0 min 0 UV-I 0 W/m 0,0 km/h (0 Bft)
23.09.2010 02:10 11,7 C 90 % 1015,6 hPa 0,0 mm 0,0 km/h (0 Bft) N 0 0 min 0 UV-I 0 W/m 0,0 km/h (0 Bft)
23.09.2010 02:20 11,6 C 90 % 1015,7 hPa 0,0 mm 0,0 km/h (0 Bft) N 0 0 min 0 UV-I 0 W/m 0,0 km/h (0 Bft)
23.09.2010 02:30 11,5 C 90 % 1015,6 hPa 0,0 mm 0,0 km/h (0 Bft) N 0 0 min 0 UV-I 0 W/m 0,0 km/h (0 Bft)
23.09.2010 02:40 11,4 C 90 % 1015,7 hPa 0,0 mm 0,0 km/h (0 Bft) N 0 0 min 0 UV-I 0 W/m 0,0 km/h (0 Bft)
23.09.2010 02:50 11,3 C 90 % 1015,5 hPa 0,0 mm 0,0 km/h (0 Bft) N 0 0 min 0 UV-I 0 W/m 0,0 km/h (0 Bft)
23.09.2010 03:00 11,2 C 91 % 1015,6 hPa 0,0 mm 0,0 km/h (0 Bft) N 0 0 min 0 UV-I 0 W/m 0,0 km/h (0 Bft)
23.09.2010 03:10 11,3 C 91 % 1015,5 hPa 0,0 mm 0,0 km/h (0 Bft) N 0 0 min 0 UV-I 0 W/m 0,0 km/h (0 Bft)
23.09.2010 03:20 11,2 C 91 % 1015,4 hPa 0,0 mm 0,0 km/h (0 Bft) N 0 0 min 0 UV-I 0 W/m 0,0 km/h (0 Bft)
23.09.2010 03:30 11,1 C 91 % 1015,3 hPa 0,0 mm 0,0 km/h (0 Bft) N 0 0 min 0 UV-I 0 W/m 0,0 km/h (0 Bft)
23.09.2010 03:40 11,0 C 91 % 1015,3 hPa 0,0 mm 0,0 km/h (0 Bft) S-SO 157 0 min 0 UV-I 0 W/m 1,6 km/h (1 Bft)
23.09.2010 03:50 11,2 C 91 % 1015,2 hPa 0,0 mm 0,0 km/h (0 Bft) S-SO 157 0 min 0 UV-I 0 W/m 1,6 km/h (1 Bft)
23.09.2010 04:00 11,3 C 91 % 1015,2 hPa 0,0 mm 0,0 km/h (0 Bft) S-SO 157 0 min 0 UV-I 0 W/m 1,6 km/h (1 Bft)
23.09.2010 04:10 11,1 C 91 % 1015,0 hPa 0,0 mm 0,0 km/h (0 Bft) S-SO 157 0 min 0 UV-I 0 W/m 1,6 km/h (1 Bft)
23.09.2010 04:20 11,0 C 91 % 1014,9 hPa 0,0 mm 0,0 km/h (0 Bft) N 0 0 min 0 UV-I 0 W/m 0,0 km/h (0 Bft)
23.09.2010 04:30 10,9 C 91 % 1014,7 hPa 0,0 mm 0,0 km/h (0 Bft) N 0 0 min 0 UV-I 0 W/m 0,0 km/h (0 Bft)
23.09.2010 04:40 10,8 C 91 % 1014,7 hPa 0,0 mm 0,0 km/h (0 Bft) S-SO 157 0 min 0 UV-I 0 W/m 1,6 km/h (1 Bft)
23.09.2010 04:50 10,9 C 91 % 1014,6 hPa 0,0 mm 0,0 km/h (0 Bft) S-SO 157 0 min 0 UV-I 0 W/m 1,6 km/h (1 Bft)
23.09.2010 05:00 10,8 C 91 % 1014,5 hPa 0,0 mm 0,0 km/h (0 Bft) N 0 0 min 0 UV-I 0 W/m 0,0 km/h (0 Bft)
23.09.2010 05:10 10,8 C 91 % 1014,6 hPa 0,0 mm 0,0 km/h (0 Bft) N 0 0 min 0 UV-I 0 W/m 0,0 km/h (0 Bft)
23.09.2010 05:20 10,8 C 91 % 1014,5 hPa 0,0 mm 0,0 km/h (0 Bft) S-SO 157 0 min 0 UV-I 0 W/m 1,6 km/h (1 Bft)
23.09.2010 05:30 10,7 C 92 % 1014,5 hPa 0,0 mm 0,0 km/h (0 Bft) N 0 0 min 0 UV-I 0 W/m 0,0 km/h (0 Bft)
23.09.2010 05:40 10,8 C 92 % 1014,5 hPa 0,0 mm 0,0 km/h (0 Bft) N 0 0 min 0 UV-I 0 W/m 0,0 km/h (0 Bft)
23.09.2010 05:50 10,8 C 91 % 1014,5 hPa 0,0 mm 0,0 km/h (0 Bft) N 0 0 min 0 UV-I 0 W/m 0,0 km/h (0 Bft)
23.09.2010 06:00 10,6 C 92 % 1014,5 hPa 0,0 mm 0,0 km/h (0 Bft) N 0 0 min 0 UV-I 0 W/m 0,0 km/h (0 Bft)
23.09.2010 06:10 10,6 C 92 % 1014,4 hPa 0,0 mm 0,0 km/h (0 Bft) N 0 0 min 0 UV-I 0 W/m 0,0 km/h (0 Bft)
23.09.2010 06:20 10,6 C 92 % 1014,4 hPa 0,0 mm 0,0 km/h (0 Bft) N 0 0 min 0 UV-I 0 W/m 0,0 km/h (0 Bft)
23.09.2010 06:30 10,4 C 92 % 1014,4 hPa 0,0 mm 0,0 km/h (0 Bft) N 0 0 min 0 UV-I 0 W/m 0,0 km/h (0 Bft)
23.09.2010 06:40 10,3 C 92 % 1014,3 hPa 0,0 mm 0,0 km/h (0 Bft) N 0 0 min 0 UV-I 0 W/m 0,0 km/h (0 Bft)
23.09.2010 06:50 10,2 C 92 % 1014,2 hPa 0,0 mm 0,0 km/h (0 Bft) N 0 0 min 0 UV-I 0 W/m 0,0 km/h (0 Bft)
23.09.2010 07:00 10,2 C 92 % 1014,2 hPa 0,0 mm 0,0 km/h (0 Bft) N 0 0 min 0 UV-I 0 W/m 0,0 km/h (0 Bft)
23.09.2010 07:10 10,1 C 92 % 1014,1 hPa 0,0 mm 0,0 km/h (0 Bft) N 0 0 min 0 UV-I 0 W/m 0,0 km/h (0 Bft)
23.09.2010 07:20 10,0 C 92 % 1014,1 hPa 0,0 mm 0,0 km/h (0 Bft) N 0 0 min 0 UV-I 5 W/m 0,0 km/h (0 Bft)
23.09.2010 07:30 10,0 C 92 % 1014,1 hPa 0,0 mm 0,0 km/h (0 Bft) N 0 0 min 0 UV-I 11 W/m 0,0 km/h (0 Bft)
23.09.2010 07:40 10,0 C 92 % 1014,0 hPa 0,0 mm 0,0 km/h (0 Bft) N 0 0 min 0 UV-I 16 W/m 0,0 km/h (0 Bft)
23.09.2010 07:50 9,9 C 92 % 1014,0 hPa 0,0 mm 0,0 km/h (0 Bft) N 0 0 min 0 UV-I 21 W/m 0,0 km/h (0 Bft)
23.09.2010 08:00 10,2 C 93 % 1014,0 hPa 0,0 mm 0,0 km/h (0 Bft) N 0 0 min 0 UV-I 25 W/m 0,0 km/h (0 Bft)
23.09.2010 08:10 10,4 C 92 % 1013,9 hPa 0,0 mm 0,0 km/h (0 Bft) N 0 0 min 0 UV-I 30 W/m 0,0 km/h (0 Bft)
23.09.2010 08:20 10,7 C 93 % 1013,7 hPa 0,0 mm 0,0 km/h (0 Bft) N 0 10 min 0 UV-I 111 W/m 0,0 km/h (0 Bft)
23.09.2010 08:30 11,1 C 93 % 1013,7 hPa 0,0 mm 0,0 km/h (0 Bft) N 0 10 min 1 UV-I 137 W/m 0,0 km/h (0 Bft)
23.09.2010 08:40 11,9 C 93 % 1013,5 hPa 0,0 mm 0,0 km/h (0 Bft) N 0 10 min 1 UV-I 160 W/m 0,0 km/h (0 Bft)
23.09.2010 08:50 12,7 C 92 % 1013,5 hPa 0,0 mm 0,0 km/h (0 Bft) N 0 10 min 1 UV-I 185 W/m 0,0 km/h (0 Bft)
23.09.2010 09:00 13,5 C 90 % 1013,4 hPa 0,0 mm 0,0 km/h (0 Bft) N 0 10 min 1 UV-I 209 W/m 0,0 km/h (0 Bft)
23.09.2010 09:10 14,2 C 89 % 1013,3 hPa 0,0 mm 0,0 km/h (0 Bft) N 0 10 min 1 UV-I 230 W/m 0,0 km/h (0 Bft)
23.09.2010 09:20 14,9 C 88 % 1013,3 hPa 0,0 mm 0,0 km/h (0 Bft) S-SO 157 10 min 1 UV-I 257 W/m 1,6 km/h (1 Bft)
23.09.2010 09:30 15,8 C 83 % 1013,2 hPa 0,0 mm 0,0 km/h (0 Bft) S-SO 157 10 min 1 UV-I 288 W/m 3,2 km/h (1 Bft)
23.09.2010 09:40 16,6 C 81 % 1013,2 hPa 0,0 mm 0,0 km/h (0 Bft) S-SO 157 10 min 1 UV-I 322 W/m 4,8 km/h (1 Bft)
23.09.2010 09:50 17,3 C 79 % 1013,1 hPa 0,0 mm 0,0 km/h (0 Bft) S-SO 157 10 min 2 UV-I 343 W/m 6,4 km/h (2 Bft)
23.09.2010 10:00 17,9 C 76 % 1013,1 hPa 0,0 mm 1,6 km/h (1 Bft) S-SO 157 10 min 2 UV-I 366 W/m 8,0 km/h (2 Bft)
23.09.2010 10:10 18,5 C 75 % 1012,9 hPa 0,0 mm 1,6 km/h (1 Bft) S-SO 157 10 min 2 UV-I 392 W/m 6,4 km/h (2 Bft)
23.09.2010 10:20 19,1 C 74 % 1012,7 hPa 0,0 mm 1,6 km/h (1 Bft) SO 135 10 min 2 UV-I 411 W/m 6,4 km/h (2 Bft)
23.09.2010 10:30 19,6 C 72 % 1012,7 hPa 0,0 mm 1,6 km/h (1 Bft) S 180 10 min 2 UV-I 438 W/m 8,0 km/h (2 Bft)
23.09.2010 10:40 20,1 C 71 % 1012,5 hPa 0,0 mm 1,6 km/h (1 Bft) S-SW 202 10 min 2 UV-I 459 W/m 8,0 km/h (2 Bft)
23.09.2010 10:50 20,6 C 69 % 1012,3 hPa 0,0 mm 1,6 km/h (1 Bft) S 180 10 min 3 UV-I 476 W/m 8,0 km/h (2 Bft)
23.09.2010 11:00 20,8 C 69 % 1012,4 hPa 0,0 mm 1,6 km/h (1 Bft) S 180 10 min 3 UV-I 499 W/m 8,0 km/h (2 Bft)
23.09.2010 11:10 21,3 C 66 % 1012,4 hPa 0,0 mm 3,2 km/h (1 Bft) S-SW 202 10 min 3 UV-I 519 W/m 8,0 km/h (2 Bft)
23.09.2010 11:20 21,6 C 66 % 1012,3 hPa 0,0 mm 1,6 km/h (1 Bft) SW 225 10 min 3 UV-I 538 W/m 8,0 km/h (2 Bft)
23.09.2010 11:30 21,9 C 64 % 1012,2 hPa 0,0 mm 1,6 km/h (1 Bft) S-SW 202 10 min 3 UV-I 554 W/m 9,7 km/h (2 Bft)
23.09.2010 11:40 22,1 C 65 % 1012,0 hPa 0,0 mm 1,6 km/h (1 Bft) O-SO 112 10 min 3 UV-I 568 W/m 9,7 km/h (2 Bft)
23.09.2010 11:50 22,5 C 63 % 1011,8 hPa 0,0 mm 3,2 km/h (1 Bft) O-SO 112 10 min 4 UV-I 584 W/m 11,3 km/h (2 Bft)
23.09.2010 12:00 22,7 C 62 % 1011,6 hPa 0,0 mm 1,6 km/h (1 Bft) O-SO 112 10 min 4 UV-I 598 W/m 9,7 km/h (2 Bft)
23.09.2010 12:10 22,9 C 62 % 1011,6 hPa 0,0 mm 3,2 km/h (1 Bft) O-SO 112 10 min 4 UV-I 608 W/m 11,3 km/h (2 Bft)
23.09.2010 12:20 23,1 C 62 % 1011,3 hPa 0,0 mm 3,2 km/h (1 Bft) O-SO 112 10 min 4 UV-I 621 W/m 9,7 km/h (2 Bft)
23.09.2010 12:30 23,3 C 61 % 1011,3 hPa 0,0 mm 3,2 km/h (1 Bft) O-SO 112 10 min 4 UV-I 629 W/m 8,0 km/h (2 Bft)
23.09.2010 12:40 23,3 C 62 % 1011,2 hPa 0,0 mm 3,2 km/h (1 Bft) SO 135 10 min 4 UV-I 633 W/m 9,7 km/h (2 Bft)
23.09.2010 12:50 23,7 C 60 % 1011,1 hPa 0,0 mm 3,2 km/h (1 Bft) S-SW 202 10 min 4 UV-I 640 W/m 9,7 km/h (2 Bft)
23.09.2010 13:00 23,7 C 61 % 1010,9 hPa 0,0 mm 1,6 km/h (1 Bft) S-SO 157 10 min 4 UV-I 647 W/m 11,3 km/h (2 Bft)
23.09.2010 13:10 23,9 C 61 % 1010,7 hPa 0,0 mm 1,6 km/h (1 Bft) W-SW 247 10 min 4 UV-I 654 W/m 11,3 km/h (2 Bft)
23.09.2010 13:20 24,1 C 58 % 1010,6 hPa 0,0 mm 1,6 km/h (1 Bft) SO 135 10 min 4 UV-I 652 W/m 6,4 km/h (2 Bft)
23.09.2010 13:30 24,3 C 59 % 1010,6 hPa 0,0 mm 1,6 km/h (1 Bft) S 180 10 min 4 UV-I 654 W/m 9,7 km/h (2 Bft)
23.09.2010 13:40 24,2 C 56 % 1010,4 hPa 0,0 mm 1,6 km/h (1 Bft) S-SW 202 10 min 4 UV-I 657 W/m 8,0 km/h (2 Bft)
23.09.2010 13:50 24,5 C 56 % 1010,3 hPa 0,0 mm 1,6 km/h (1 Bft) S 180 10 min 4 UV-I 708 W/m 8,0 km/h (2 Bft)
23.09.2010 14:00 24,5 C 55 % 1010,1 hPa 0,0 mm 1,6 km/h (1 Bft) W-SW 247 10 min 4 UV-I 722 W/m 8,0 km/h (2 Bft)
23.09.2010 14:10 24,3 C 55 % 1009,9 hPa 0,0 mm 1,6 km/h (1 Bft) SW 225 10 min 4 UV-I 703 W/m 6,4 km/h (2 Bft)
23.09.2010 14:20 24,4 C 55 % 1009,8 hPa 0,0 mm 1,6 km/h (1 Bft) S 180 10 min 4 UV-I 715 W/m 9,7 km/h (2 Bft)
23.09.2010 14:30 24,8 C 54 % 1009,5 hPa 0,0 mm 1,6 km/h (1 Bft) W-SW 247 10 min 4 UV-I 733 W/m 8,0 km/h (2 Bft)
23.09.2010 14:40 25,0 C 56 % 1009,4 hPa 0,0 mm 1,6 km/h (1 Bft) SW 225 10 min 4 UV-I 654 W/m 6,4 km/h (2 Bft)
23.09.2010 14:50 25,0 C 51 % 1009,2 hPa 0,0 mm 1,6 km/h (1 Bft) S-SW 202 10 min 4 UV-I 675 W/m 8,0 km/h (2 Bft)
23.09.2010 15:00 25,4 C 47 % 1009,1 hPa 0,0 mm 3,2 km/h (1 Bft) S-SW 202 10 min 4 UV-I 652 W/m 9,7 km/h (2 Bft)
23.09.2010 15:10 25,2 C 49 % 1008,9 hPa 0,0 mm 1,6 km/h (1 Bft) S 180 10 min 3 UV-I 541 W/m 6,4 km/h (2 Bft)
23.09.2010 15:20 25,2 C 47 % 1008,8 hPa 0,0 mm 3,2 km/h (1 Bft) W-SW 247 10 min 3 UV-I 577 W/m 8,0 km/h (2 Bft)
23.09.2010 15:30 25,1 C 49 % 1008,9 hPa 0,0 mm 1,6 km/h (1 Bft) SW 225 10 min 2 UV-I 432 W/m 9,7 km/h (2 Bft)
23.09.2010 15:40 25,1 C 49 % 1008,7 hPa 0,0 mm 3,2 km/h (1 Bft) SW 225 10 min 3 UV-I 526 W/m 9,7 km/h (2 Bft)
23.09.2010 15:50 25,3 C 48 % 1008,7 hPa 0,0 mm 3,2 km/h (1 Bft) W-SW 247 10 min 2 UV-I 512 W/m 11,3 km/h (2 Bft)
23.09.2010 16:00 24,7 C 50 % 1008,6 hPa 0,0 mm 3,2 km/h (1 Bft) W-SW 247 10 min 2 UV-I 339 W/m 11,3 km/h (2 Bft)
23.09.2010 16:10 24,6 C 50 % 1008,6 hPa 0,0 mm 1,6 km/h (1 Bft) S-SW 202 10 min 2 UV-I 318 W/m 8,0 km/h (2 Bft)
23.09.2010 16:20 24,5 C 51 % 1008,3 hPa 0,0 mm 0,0 km/h (0 Bft) SW 225 10 min 2 UV-I 294 W/m 8,0 km/h (2 Bft)
23.09.2010 16:30 24,4 C 50 % 1008,4 hPa 0,0 mm 1,6 km/h (1 Bft) SW 225 10 min 1 UV-I 278 W/m 8,0 km/h (2 Bft)
23.09.2010 16:40 24,2 C 52 % 1008,2 hPa 0,0 mm 1,6 km/h (1 Bft) SW 225 10 min 1 UV-I 236 W/m 9,7 km/h (2 Bft)
23.09.2010 16:50 24,1 C 53 % 1008,2 hPa 0,0 mm 1,6 km/h (1 Bft) SW 225 10 min 1 UV-I 223 W/m 8,0 km/h (2 Bft)
23.09.2010 17:00 24,1 C 54 % 1008,0 hPa 0,0 mm 1,6 km/h (1 Bft) SW 225 10 min 1 UV-I 292 W/m 4,8 km/h (1 Bft)
23.09.2010 17:10 24,2 C 52 % 1007,9 hPa 0,0 mm 1,6 km/h (1 Bft) SW 225 10 min 1 UV-I 287 W/m 8,0 km/h (2 Bft)
23.09.2010 17:20 24,2 C 52 % 1007,9 hPa 0,0 mm 3,2 km/h (1 Bft) SW 225 10 min 1 UV-I 223 W/m 11,3 km/h (2 Bft)
23.09.2010 17:30 23,8 C 55 % 1007,7 hPa 0,0 mm 0,0 km/h (0 Bft) W-SW 247 0 min 1 UV-I 146 W/m 6,4 km/h (2 Bft)
23.09.2010 17:40 23,7 C 55 % 1007,6 hPa 0,0 mm 0,0 km/h (0 Bft) W-SW 247 0 min 1 UV-I 139 W/m 4,8 km/h (1 Bft)
23.09.2010 17:50 23,4 C 57 % 1007,5 hPa 0,0 mm 0,0 km/h (0 Bft) W-SW 247 10 min 1 UV-I 135 W/m 4,8 km/h (1 Bft)
23.09.2010 18:00 23,3 C 57 % 1007,3 hPa 0,0 mm 0,0 km/h (0 Bft) W-SW 247 10 min 1 UV-I 142 W/m 6,4 km/h (2 Bft)
23.09.2010 18:10 23,1 C 57 % 1007,4 hPa 0,0 mm 0,0 km/h (0 Bft) W-SW 247 10 min 1 UV-I 134 W/m 3,2 km/h (1 Bft)
23.09.2010 18:20 22,8 C 59 % 1007,5 hPa 0,0 mm 1,6 km/h (1 Bft) SW 225 10 min 0 UV-I 90 W/m 4,8 km/h (1 Bft)
23.09.2010 18:30 22,6 C 62 % 1007,5 hPa 0,0 mm 1,6 km/h (1 Bft) SW 225 10 min 0 UV-I 74 W/m 6,4 km/h (2 Bft)
23.09.2010 18:40 22,2 C 65 % 1007,3 hPa 0,0 mm 1,6 km/h (1 Bft) S-SW 202 10 min 0 UV-I 62 W/m 11,3 km/h (2 Bft)
23.09.2010 18:50 21,7 C 66 % 1007,3 hPa 0,0 mm 1,6 km/h (1 Bft) S 180 0 min 0 UV-I 39 W/m 8,0 km/h (2 Bft)
23.09.2010 19:00 21,3 C 67 % 1007,1 hPa 0,0 mm 1,6 km/h (1 Bft) S 180 10 min 0 UV-I 25 W/m 8,0 km/h (2 Bft)
23.09.2010 19:10 20,8 C 68 % 1007,1 hPa 0,0 mm 1,6 km/h (1 Bft) S 180 10 min 0 UV-I 14 W/m 9,7 km/h (2 Bft)
23.09.2010 19:20 20,5 C 68 % 1007,1 hPa 0,0 mm 1,6 km/h (1 Bft) S 180 0 min 0 UV-I 7 W/m 11,3 km/h (2 Bft)
23.09.2010 19:30 20,3 C 69 % 1007,1 hPa 0,0 mm 1,6 km/h (1 Bft) S 180 0 min 0 UV-I 0 W/m 9,7 km/h (2 Bft)
23.09.2010 19:40 20,1 C 70 % 1007,0 hPa 0,0 mm 1,6 km/h (1 Bft) S 180 0 min 0 UV-I 0 W/m 6,4 km/h (2 Bft)
23.09.2010 19:50 19,8 C 71 % 1007,0 hPa 0,0 mm 0,0 km/h (0 Bft) S-SO 157 0 min 0 UV-I 0 W/m 6,4 km/h (2 Bft)
23.09.2010 20:00 19,6 C 72 % 1006,9 hPa 0,0 mm 0,0 km/h (0 Bft) S-SO 157 0 min 0 UV-I 0 W/m 4,8 km/h (1 Bft)
23.09.2010 20:10 19,3 C 73 % 1006,8 hPa 0,0 mm 0,0 km/h (0 Bft) S-SO 157 0 min 0 UV-I 0 W/m 6,4 km/h (2 Bft)
23.09.2010 20:20 19,1 C 74 % 1006,8 hPa 0,0 mm 0,0 km/h (0 Bft) S-SO 157 0 min 0 UV-I 0 W/m 4,8 km/h (1 Bft)
23.09.2010 20:30 18,8 C 75 % 1006,6 hPa 0,0 mm 1,6 km/h (1 Bft) S-SO 157 0 min 0 UV-I 0 W/m 8,0 km/h (2 Bft)
23.09.2010 20:40 18,6 C 75 % 1006,6 hPa 0,0 mm 0,0 km/h (0 Bft) S-SO 157 0 min 0 UV-I 0 W/m 3,2 km/h (1 Bft)
23.09.2010 20:50 18,5 C 75 % 1006,4 hPa 0,0 mm 1,6 km/h (1 Bft) S-SO 157 0 min 0 UV-I 0 W/m 8,0 km/h (2 Bft)
23.09.2010 21:00 18,4 C 75 % 1006,4 hPa 0,0 mm 1,6 km/h (1 Bft) S-SO 157 0 min 0 UV-I 0 W/m 6,4 km/h (2 Bft)
23.09.2010 21:10 18,4 C 76 % 1006,3 hPa 0,0 mm 1,6 km/h (1 Bft) S-SO 157 0 min 0 UV-I 0 W/m 8,0 km/h (2 Bft)
23.09.2010 21:20 18,3 C 76 % 1006,2 hPa 0,0 mm 1,6 km/h (1 Bft) S-SO 157 0 min 0 UV-I 0 W/m 9,7 km/h (2 Bft)
23.09.2010 21:30 18,1 C 76 % 1006,1 hPa 0,0 mm 1,6 km/h (1 Bft) SO 135 0 min 0 UV-I 0 W/m 6,4 km/h (2 Bft)
23.09.2010 21:40 18,0 C 76 % 1005,8 hPa 0,0 mm 1,6 km/h (1 Bft) S-SO 157 0 min 0 UV-I 0 W/m 6,4 km/h (2 Bft)
23.09.2010 21:50 17,8 C 77 % 1005,8 hPa 0,0 mm 1,6 km/h (1 Bft) SO 135 0 min 0 UV-I 0 W/m 8,0 km/h (2 Bft)
23.09.2010 22:00 17,7 C 77 % 1005,6 hPa 0,0 mm 1,6 km/h (1 Bft) S-SO 157 0 min 0 UV-I 0 W/m 6,4 km/h (2 Bft)
23.09.2010 22:10 17,6 C 77 % 1005,4 hPa 0,0 mm 1,6 km/h (1 Bft) S-SO 157 0 min 0 UV-I 0 W/m 6,4 km/h (2 Bft)
23.09.2010 22:20 17,4 C 78 % 1005,4 hPa 0,0 mm 1,2 km/h (1 Bft) S-SO 153 0 min 0 UV-I 0 W/m 1,6 km/h (1 Bft)
23.09.2010 22:30 17,4 C 78 % 1005,4 hPa 0,0 mm 0,6 km/h (0 Bft) SO 146 0 min 0 UV-I 0 W/m 4,8 km/h (1 Bft)
23.09.2010 22:40 17,4 C 78 % 1005,2 hPa 0,0 mm 1,6 km/h (1 Bft) S-SO 157 0 min 0 UV-I 0 W/m 6,4 km/h (2 Bft)
23.09.2010 22:50 17,4 C 78 % 1005,1 hPa 0,0 mm 0,0 km/h (0 Bft) S-SO 157 0 min 0 UV-I 0 W/m 6,4 km/h (2 Bft)
23.09.2010 23:00 17,3 C 79 % 1004,9 hPa 0,0 mm 0,0 km/h (0 Bft) S-SO 157 0 min 0 UV-I 0 W/m 4,8 km/h (1 Bft)
23.09.2010 23:10 17,2 C 79 % 1004,8 hPa 0,0 mm 0,0 km/h (0 Bft) S-SO 157 0 min 0 UV-I 0 W/m 6,4 km/h (2 Bft)
23.09.2010 23:20 17,2 C 79 % 1004,8 hPa 0,0 mm 0,0 km/h (0 Bft) S-SO 157 0 min 0 UV-I 0 W/m 6,4 km/h (2 Bft)
23.09.2010 23:30 17,2 C 80 % 1004,6 hPa 0,0 mm 1,6 km/h (1 Bft) SO 135 0 min 0 UV-I 0 W/m 6,4 km/h (2 Bft)
23.09.2010 23:40 17,1 C 80 % 1004,5 hPa 0,0 mm 0,0 km/h (0 Bft) SO 135 0 min 0 UV-I 0 W/m 6,4 km/h (2 Bft)
23.09.2010 23:50 17,1 C 80 % 1004,4 hPa 0,0 mm 0,0 km/h (0 Bft) SO 135 0 min 0 UV-I 0 W/m 4,8 km/h (1 Bft)
_ Min-Zeit 07:40 15:00 23:50 - 00:00 - - - - - 00:10
Minimum _ 9,9 C 47 % 1004,4 hPa - 0,0 km/h (0 Bft) - - - - - 0,0 km/h (0 Bft)
_ Max-Zeit 15:00 08:00 00:00 00:00 11:10 - - 08:20 13:00 14:30 11:50
Maximum _ 25,6 C 93 % 1016,5 hPa 0,0 mm 3,2 km/h
S-SW (1 Bft)
- - 10 min 4 UV-I 733 W/m 11,3 km/h
O-SO (2 Bft)
Durchschnitt _ 17,4 C 75 % 1011,1 hPa #0,0 mm 0,9 km/h (0 Bft) S-SO - #10:30 h 2 UV-I 367 W/m 4,7 km/h (1 Bft)